sensor_id;sensor_type;location;lat;lon;timestamp;temperature;humidity
37240;DHT22;23130;48.760;9.178;2024-01-30T00:02:21;4.20;99.90
37240;DHT22;23130;48.760;9.178;2024-01-30T00:04:46;4.30;99.90
37240;DHT22;23130;48.760;9.178;2024-01-30T00:07:12;4.30;99.90
37240;DHT22;23130;48.760;9.178;2024-01-30T00:09:37;4.30;99.90
37240;DHT22;23130;48.760;9.178;2024-01-30T00:12:05;4.40;99.90
37240;DHT22;23130;48.760;9.178;2024-01-30T00:14:31;4.50;99.90
37240;DHT22;23130;48.760;9.178;2024-01-30T00:16:58;4.60;99.90
37240;DHT22;23130;48.760;9.178;2024-01-30T00:19:24;4.60;99.90
37240;DHT22;23130;48.760;9.178;2024-01-30T00:21:50;4.70;99.90
37240;DHT22;23130;48.760;9.178;2024-01-30T00:24:16;4.70;99.90
37240;DHT22;23130;48.760;9.178;2024-01-30T00:26:42;4.60;99.90
37240;DHT22;23130;48.760;9.178;2024-01-30T00:29:07;4.60;99.90
37240;DHT22;23130;48.760;9.178;2024-01-30T00:31:34;4.60;99.90
37240;DHT22;23130;48.760;9.178;2024-01-30T00:34:01;4.50;99.90
37240;DHT22;23130;48.760;9.178;2024-01-30T00:36:26;4.40;99.90
37240;DHT22;23130;48.760;9.178;2024-01-30T00:38:55;4.40;99.90
37240;DHT22;23130;48.760;9.178;2024-01-30T00:41:20;4.40;99.90
37240;DHT22;23130;48.760;9.178;2024-01-30T00:43:46;4.50;99.90
37240;DHT22;23130;48.760;9.178;2024-01-30T00:46:13;4.50;99.90
37240;DHT22;23130;48.760;9.178;2024-01-30T00:48:38;4.60;99.90
37240;DHT22;23130;48.760;9.178;2024-01-30T00:51:05;4.70;99.90
37240;DHT22;23130;48.760;9.178;2024-01-30T00:53:31;4.80;99.90
37240;DHT22;23130;48.760;9.178;2024-01-30T00:55:56;4.80;99.90
37240;DHT22;23130;48.760;9.178;2024-01-30T00:58:21;4.70;99.90
37240;DHT22;23130;48.760;9.178;2024-01-30T01:00:47;4.60;99.90
37240;DHT22;23130;48.760;9.178;2024-01-30T01:03:12;4.60;99.90
37240;DHT22;23130;48.760;9.178;2024-01-30T01:05:39;4.50;99.90
37240;DHT22;23130;48.760;9.178;2024-01-30T01:08:05;4.50;99.90
37240;DHT22;23130;48.760;9.178;2024-01-30T01:10:30;4.40;99.90
37240;DHT22;23130;48.760;9.178;2024-01-30T01:12:56;4.30;99.90
37240;DHT22;23130;48.760;9.178;2024-01-30T01:15:21;4.30;99.90
37240;DHT22;23130;48.760;9.178;2024-01-30T01:17:47;4.40;99.90
37240;DHT22;23130;48.760;9.178;2024-01-30T01:20:14;4.50;99.90
37240;DHT22;23130;48.760;9.178;2024-01-30T01:22:40;4.60;99.90
37240;DHT22;23130;48.760;9.178;2024-01-30T01:25:08;4.60;99.90
37240;DHT22;23130;48.760;9.178;2024-01-30T01:27:34;4.60;99.90
37240;DHT22;23130;48.760;9.178;2024-01-30T01:30:05;4.60;99.90
37240;DHT22;23130;48.760;9.178;2024-01-30T01:32:32;4.50;99.90
37240;DHT22;23130;48.760;9.178;2024-01-30T01:34:58;4.40;99.90
37240;DHT22;23130;48.760;9.178;2024-01-30T01:37:23;4.30;99.90
37240;DHT22;23130;48.760;9.178;2024-01-30T01:39:52;4.20;99.90
37240;DHT22;23130;48.760;9.178;2024-01-30T01:42:18;4.20;99.90
37240;DHT22;23130;48.760;9.178;2024-01-30T01:44:44;4.10;99.90
37240;DHT22;23130;48.760;9.178;2024-01-30T01:47:09;4.10;99.90
37240;DHT22;23130;48.760;9.178;2024-01-30T01:49:35;4.10;99.90
37240;DHT22;23130;48.760;9.178;2024-01-30T01:52:01;4.00;99.90
37240;DHT22;23130;48.760;9.178;2024-01-30T01:54:26;4.00;99.90
37240;DHT22;23130;48.760;9.178;2024-01-30T01:56:53;4.00;99.90
37240;DHT22;23130;48.760;9.178;2024-01-30T01:59:18;4.00;99.90
37240;DHT22;23130;48.760;9.178;2024-01-30T02:01:46;4.10;99.90
37240;DHT22;23130;48.760;9.178;2024-01-30T02:04:14;4.00;99.90
37240;DHT22;23130;48.760;9.178;2024-01-30T02:06:41;4.00;99.90
37240;DHT22;23130;48.760;9.178;2024-01-30T02:09:09;4.00;99.90
37240;DHT22;23130;48.760;9.178;2024-01-30T02:11:36;4.00;99.90
37240;DHT22;23130;48.760;9.178;2024-01-30T02:14:02;4.00;99.90
37240;DHT22;23130;48.760;9.178;2024-01-30T02:16:27;4.10;99.90
37240;DHT22;23130;48.760;9.178;2024-01-30T02:18:53;4.10;99.90
37240;DHT22;23130;48.760;9.178;2024-01-30T02:21:18;4.10;99.90
37240;DHT22;23130;48.760;9.178;2024-01-30T02:23:44;3.90;99.90
37240;DHT22;23130;48.760;9.178;2024-01-30T02:26:11;3.80;99.90
37240;DHT22;23130;48.760;9.178;2024-01-30T02:28:37;3.70;99.90
37240;DHT22;23130;48.760;9.178;2024-01-30T02:31:03;3.70;99.90
37240;DHT22;23130;48.760;9.178;2024-01-30T02:33:28;3.70;99.90
37240;DHT22;23130;48.760;9.178;2024-01-30T02:35:54;3.70;99.90
37240;DHT22;23130;48.760;9.178;2024-01-30T02:38:20;3.70;99.90
37240;DHT22;23130;48.760;9.178;2024-01-30T02:40:46;3.70;99.90
37240;DHT22;23130;48.760;9.178;2024-01-30T02:43:11;3.70;99.90
37240;DHT22;23130;48.760;9.178;2024-01-30T02:45:37;3.80;99.90
37240;DHT22;23130;48.760;9.178;2024-01-30T02:48:02;3.80;99.90
37240;DHT22;23130;48.760;9.178;2024-01-30T02:50:28;3.90;99.90
37240;DHT22;23130;48.760;9.178;2024-01-30T02:52:53;3.90;99.90
37240;DHT22;23130;48.760;9.178;2024-01-30T02:55:19;3.90;99.90
37240;DHT22;23130;48.760;9.178;2024-01-30T02:57:44;4.00;99.90
37240;DHT22;23130;48.760;9.178;2024-01-30T03:00:10;4.00;99.90
37240;DHT22;23130;48.760;9.178;2024-01-30T03:02:36;4.00;99.90
37240;DHT22;23130;48.760;9.178;2024-01-30T03:05:02;4.00;99.90
37240;DHT22;23130;48.760;9.178;2024-01-30T03:07:30;4.00;99.90
37240;DHT22;23130;48.760;9.178;2024-01-30T03:09:55;4.00;99.90
37240;DHT22;23130;48.760;9.178;2024-01-30T03:12:21;3.90;99.90
37240;DHT22;23130;48.760;9.178;2024-01-30T03:14:48;3.90;99.90
37240;DHT22;23130;48.760;9.178;2024-01-30T03:17:14;3.80;99.90
37240;DHT22;23130;48.760;9.178;2024-01-30T03:19:40;3.70;99.90
37240;DHT22;23130;48.760;9.178;2024-01-30T03:22:06;3.70;99.90
37240;DHT22;23130;48.760;9.178;2024-01-30T03:24:31;3.70;99.90
37240;DHT22;23130;48.760;9.178;2024-01-30T03:26:57;3.60;99.90
37240;DHT22;23130;48.760;9.178;2024-01-30T03:29:23;3.60;99.90
37240;DHT22;23130;48.760;9.178;2024-01-30T03:31:48;3.50;99.90
37240;DHT22;23130;48.760;9.178;2024-01-30T03:34:14;3.50;99.90
37240;DHT22;23130;48.760;9.178;2024-01-30T03:36:39;3.40;99.90
37240;DHT22;23130;48.760;9.178;2024-01-30T03:39:05;3.40;99.90
37240;DHT22;23130;48.760;9.178;2024-01-30T03:41:31;3.30;99.90
37240;DHT22;23130;48.760;9.178;2024-01-30T03:43:57;3.30;99.90
37240;DHT22;23130;48.760;9.178;2024-01-30T03:46:22;3.30;99.90
37240;DHT22;23130;48.760;9.178;2024-01-30T03:48:48;3.30;99.90
37240;DHT22;23130;48.760;9.178;2024-01-30T03:51:14;3.30;99.90
37240;DHT22;23130;48.760;9.178;2024-01-30T03:53:41;3.30;99.90
37240;DHT22;23130;48.760;9.178;2024-01-30T03:56:08;3.30;99.90
37240;DHT22;23130;48.760;9.178;2024-01-30T03:58:35;3.20;99.90
37240;DHT22;23130;48.760;9.178;2024-01-30T04:01:01;3.10;99.90
37240;DHT22;23130;48.760;9.178;2024-01-30T04:03:27;3.10;99.90
37240;DHT22;23130;48.760;9.178;2024-01-30T04:05:53;3.00;99.90
37240;DHT22;23130;48.760;9.178;2024-01-30T04:08:19;3.00;99.90
37240;DHT22;23130;48.760;9.178;2024-01-30T04:10:45;3.00;99.90
37240;DHT22;23130;48.760;9.178;2024-01-30T04:13:11;3.00;99.90
37240;DHT22;23130;48.760;9.178;2024-01-30T04:15:37;3.00;99.90
37240;DHT22;23130;48.760;9.178;2024-01-30T04:18:02;2.90;99.90
37240;DHT22;23130;48.760;9.178;2024-01-30T04:20:28;2.90;99.90
37240;DHT22;23130;48.760;9.178;2024-01-30T04:22:54;2.80;99.90
37240;DHT22;23130;48.760;9.178;2024-01-30T04:25:19;2.70;99.90
37240;DHT22;23130;48.760;9.178;2024-01-30T04:27:45;2.70;99.90
37240;DHT22;23130;48.760;9.178;2024-01-30T04:30:11;2.70;99.90
37240;DHT22;23130;48.760;9.178;2024-01-30T04:32:36;2.60;99.90
37240;DHT22;23130;48.760;9.178;2024-01-30T04:35:02;2.60;99.90
37240;DHT22;23130;48.760;9.178;2024-01-30T04:37:28;2.70;99.90
37240;DHT22;23130;48.760;9.178;2024-01-30T04:39:53;2.70;99.90
37240;DHT22;23130;48.760;9.178;2024-01-30T04:42:19;2.70;99.90
37240;DHT22;23130;48.760;9.178;2024-01-30T04:44:44;2.60;99.90
37240;DHT22;23130;48.760;9.178;2024-01-30T04:47:10;2.50;99.90
37240;DHT22;23130;48.760;9.178;2024-01-30T04:49:40;2.50;99.90
37240;DHT22;23130;48.760;9.178;2024-01-30T04:52:06;2.50;99.90
37240;DHT22;23130;48.760;9.178;2024-01-30T04:54:32;2.30;99.90
37240;DHT22;23130;48.760;9.178;2024-01-30T04:56:57;2.30;99.90
37240;DHT22;23130;48.760;9.178;2024-01-30T04:59:23;2.30;99.90
37240;DHT22;23130;48.760;9.178;2024-01-30T05:01:49;2.30;99.90
37240;DHT22;23130;48.760;9.178;2024-01-30T05:04:14;2.40;99.90
37240;DHT22;23130;48.760;9.178;2024-01-30T05:06:40;2.40;99.90
37240;DHT22;23130;48.760;9.178;2024-01-30T05:09:08;2.30;99.90
37240;DHT22;23130;48.760;9.178;2024-01-30T05:11:37;2.30;99.90
37240;DHT22;23130;48.760;9.178;2024-01-30T05:14:04;2.40;99.90
37240;DHT22;23130;48.760;9.178;2024-01-30T05:16:30;2.40;99.90
37240;DHT22;23130;48.760;9.178;2024-01-30T05:18:56;2.50;99.90
37240;DHT22;23130;48.760;9.178;2024-01-30T05:21:21;2.60;99.90
37240;DHT22;23130;48.760;9.178;2024-01-30T05:23:48;2.40;99.90
37240;DHT22;23130;48.760;9.178;2024-01-30T05:26:13;2.50;99.90
37240;DHT22;23130;48.760;9.178;2024-01-30T05:28:39;2.40;99.90
37240;DHT22;23130;48.760;9.178;2024-01-30T05:31:06;2.40;99.90
37240;DHT22;23130;48.760;9.178;2024-01-30T05:33:31;2.30;99.90
37240;DHT22;23130;48.760;9.178;2024-01-30T05:35:57;2.40;99.90
37240;DHT22;23130;48.760;9.178;2024-01-30T05:38:23;2.50;99.90
37240;DHT22;23130;48.760;9.178;2024-01-30T05:40:49;2.50;99.90
37240;DHT22;23130;48.760;9.178;2024-01-30T05:43:15;2.50;99.90
37240;DHT22;23130;48.760;9.178;2024-01-30T05:45:40;2.50;99.90
37240;DHT22;23130;48.760;9.178;2024-01-30T05:48:06;2.50;99.90
37240;DHT22;23130;48.760;9.178;2024-01-30T05:50:33;2.40;99.90
37240;DHT22;23130;48.760;9.178;2024-01-30T05:53:00;2.40;99.90
37240;DHT22;23130;48.760;9.178;2024-01-30T05:55:25;2.50;99.90
37240;DHT22;23130;48.760;9.178;2024-01-30T05:57:51;2.40;99.90
37240;DHT22;23130;48.760;9.178;2024-01-30T06:00:18;2.40;99.90
37240;DHT22;23130;48.760;9.178;2024-01-30T06:02:44;2.40;99.90
37240;DHT22;23130;48.760;9.178;2024-01-30T06:05:10;2.40;99.90
37240;DHT22;23130;48.760;9.178;2024-01-30T06:07:35;2.30;99.90
37240;DHT22;23130;48.760;9.178;2024-01-30T06:10:02;2.40;99.90
37240;DHT22;23130;48.760;9.178;2024-01-30T06:12:28;2.40;99.90
37240;DHT22;23130;48.760;9.178;2024-01-30T06:14:53;2.50;99.90
37240;DHT22;23130;48.760;9.178;2024-01-30T06:17:22;2.40;99.90
37240;DHT22;23130;48.760;9.178;2024-01-30T06:19:47;2.40;99.90
37240;DHT22;23130;48.760;9.178;2024-01-30T06:22:13;2.30;99.90
37240;DHT22;23130;48.760;9.178;2024-01-30T06:24:38;2.30;99.90
37240;DHT22;23130;48.760;9.178;2024-01-30T06:27:05;2.30;99.90
37240;DHT22;23130;48.760;9.178;2024-01-30T06:29:31;2.40;99.90
37240;DHT22;23130;48.760;9.178;2024-01-30T06:31:56;2.40;99.90
37240;DHT22;23130;48.760;9.178;2024-01-30T06:34:22;2.40;99.90
37240;DHT22;23130;48.760;9.178;2024-01-30T06:36:48;2.30;99.90
37240;DHT22;23130;48.760;9.178;2024-01-30T06:39:13;2.30;99.90
37240;DHT22;23130;48.760;9.178;2024-01-30T06:41:38;2.30;99.90
37240;DHT22;23130;48.760;9.178;2024-01-30T06:44:04;2.30;99.90
37240;DHT22;23130;48.760;9.178;2024-01-30T06:46:32;2.20;99.90
37240;DHT22;23130;48.760;9.178;2024-01-30T06:48:57;2.10;99.90
37240;DHT22;23130;48.760;9.178;2024-01-30T06:51:23;2.10;99.90
37240;DHT22;23130;48.760;9.178;2024-01-30T06:53:48;2.10;99.90
37240;DHT22;23130;48.760;9.178;2024-01-30T06:56:14;2.10;99.90
37240;DHT22;23130;48.760;9.178;2024-01-30T06:58:39;2.10;99.90
37240;DHT22;23130;48.760;9.178;2024-01-30T07:01:05;2.10;99.90
37240;DHT22;23130;48.760;9.178;2024-01-30T07:03:33;2.10;99.90
37240;DHT22;23130;48.760;9.178;2024-01-30T07:06:01;2.10;99.90
37240;DHT22;23130;48.760;9.178;2024-01-30T07:08:27;2.20;99.90
37240;DHT22;23130;48.760;9.178;2024-01-30T07:10:53;2.20;99.90
37240;DHT22;23130;48.760;9.178;2024-01-30T07:13:20;2.30;99.90
37240;DHT22;23130;48.760;9.178;2024-01-30T07:15:46;2.40;99.90
37240;DHT22;23130;48.760;9.178;2024-01-30T07:18:11;2.60;99.90
37240;DHT22;23130;48.760;9.178;2024-01-30T07:20:41;2.70;99.90
37240;DHT22;23130;48.760;9.178;2024-01-30T07:23:12;2.90;99.90
37240;DHT22;23130;48.760;9.178;2024-01-30T07:25:40;3.10;99.90
37240;DHT22;23130;48.760;9.178;2024-01-30T07:28:07;3.40;99.90
37240;DHT22;23130;48.760;9.178;2024-01-30T07:30:34;3.60;99.90
37240;DHT22;23130;48.760;9.178;2024-01-30T07:33:00;3.90;99.90
37240;DHT22;23130;48.760;9.178;2024-01-30T07:35:25;4.10;99.90
37240;DHT22;23130;48.760;9.178;2024-01-30T07:37:51;4.30;99.90
37240;DHT22;23130;48.760;9.178;2024-01-30T07:40:16;4.50;99.90
37240;DHT22;23130;48.760;9.178;2024-01-30T07:42:42;4.60;99.90
37240;DHT22;23130;48.760;9.178;2024-01-30T07:45:08;4.80;99.90
37240;DHT22;23130;48.760;9.178;2024-01-30T07:47:34;4.90;99.90
37240;DHT22;23130;48.760;9.178;2024-01-30T07:50:01;4.90;99.90
37240;DHT22;23130;48.760;9.178;2024-01-30T07:52:27;5.00;99.90
37240;DHT22;23130;48.760;9.178;2024-01-30T07:54:52;4.90;99.90
37240;DHT22;23130;48.760;9.178;2024-01-30T07:57:18;4.90;99.90
37240;DHT22;23130;48.760;9.178;2024-01-30T07:59:44;4.90;99.90
37240;DHT22;23130;48.760;9.178;2024-01-30T08:02:14;5.00;99.90
37240;DHT22;23130;48.760;9.178;2024-01-30T08:04:39;5.00;99.90
37240;DHT22;23130;48.760;9.178;2024-01-30T08:07:05;5.00;99.90
37240;DHT22;23130;48.760;9.178;2024-01-30T08:09:30;5.10;99.90
37240;DHT22;23130;48.760;9.178;2024-01-30T08:11:56;5.10;99.90
37240;DHT22;23130;48.760;9.178;2024-01-30T08:14:24;5.10;99.90
37240;DHT22;23130;48.760;9.178;2024-01-30T08:16:51;5.20;99.90
37240;DHT22;23130;48.760;9.178;2024-01-30T08:19:16;5.20;99.90
37240;DHT22;23130;48.760;9.178;2024-01-30T08:21:42;5.20;99.90
37240;DHT22;23130;48.760;9.178;2024-01-30T08:24:07;5.20;99.90
37240;DHT22;23130;48.760;9.178;2024-01-30T08:26:34;5.20;99.90
37240;DHT22;23130;48.760;9.178;2024-01-30T08:29:01;5.10;99.90
37240;DHT22;23130;48.760;9.178;2024-01-30T08:34:01;5.10;99.90
37240;DHT22;23130;48.760;9.178;2024-01-30T08:36:28;5.10;99.90
37240;DHT22;23130;48.760;9.178;2024-01-30T08:38:55;5.20;99.90
37240;DHT22;23130;48.760;9.178;2024-01-30T08:41:20;5.30;99.90
37240;DHT22;23130;48.760;9.178;2024-01-30T08:43:46;5.40;99.90
37240;DHT22;23130;48.760;9.178;2024-01-30T08:46:12;5.60;99.90
37240;DHT22;23130;48.760;9.178;2024-01-30T08:48:39;5.70;99.90
37240;DHT22;23130;48.760;9.178;2024-01-30T08:51:04;5.70;99.90
37240;DHT22;23130;48.760;9.178;2024-01-30T08:53:33;5.80;99.90
37240;DHT22;23130;48.760;9.178;2024-01-30T08:55:59;5.90;99.90
37240;DHT22;23130;48.760;9.178;2024-01-30T08:58:24;6.00;99.90
37240;DHT22;23130;48.760;9.178;2024-01-30T09:00:49;6.20;99.90
37240;DHT22;23130;48.760;9.178;2024-01-30T09:03:17;6.30;99.90
37240;DHT22;23130;48.760;9.178;2024-01-30T09:05:43;6.50;99.90
37240;DHT22;23130;48.760;9.178;2024-01-30T09:08:09;6.60;99.90
37240;DHT22;23130;48.760;9.178;2024-01-30T09:10:35;6.80;99.90
37240;DHT22;23130;48.760;9.178;2024-01-30T09:13:01;6.90;99.90
37240;DHT22;23130;48.760;9.178;2024-01-30T09:15:28;7.10;99.90
37240;DHT22;23130;48.760;9.178;2024-01-30T09:17:54;7.30;99.90
37240;DHT22;23130;48.760;9.178;2024-01-30T09:20:21;7.50;99.90
37240;DHT22;23130;48.760;9.178;2024-01-30T09:22:47;7.60;99.90
37240;DHT22;23130;48.760;9.178;2024-01-30T09:25:13;7.70;99.90
37240;DHT22;23130;48.760;9.178;2024-01-30T09:27:38;7.70;99.90
37240;DHT22;23130;48.760;9.178;2024-01-30T09:30:05;7.80;99.90
37240;DHT22;23130;48.760;9.178;2024-01-30T09:32:31;7.90;99.90
37240;DHT22;23130;48.760;9.178;2024-01-30T09:34:56;8.00;99.90
37240;DHT22;23130;48.760;9.178;2024-01-30T09:37:22;8.00;99.90
37240;DHT22;23130;48.760;9.178;2024-01-30T09:39:48;8.10;99.90
37240;DHT22;23130;48.760;9.178;2024-01-30T09:44:44;8.40;99.90
37240;DHT22;23130;48.760;9.178;2024-01-30T09:47:12;8.50;99.90
37240;DHT22;23130;48.760;9.178;2024-01-30T09:49:38;8.50;99.90
37240;DHT22;23130;48.760;9.178;2024-01-30T09:52:05;8.60;99.90
37240;DHT22;23130;48.760;9.178;2024-01-30T09:54:32;8.60;99.90
37240;DHT22;23130;48.760;9.178;2024-01-30T09:56:58;8.60;99.90
37240;DHT22;23130;48.760;9.178;2024-01-30T09:59:23;8.70;99.90
37240;DHT22;23130;48.760;9.178;2024-01-30T10:01:49;8.70;99.90
37240;DHT22;23130;48.760;9.178;2024-01-30T10:04:15;8.90;99.90
37240;DHT22;23130;48.760;9.178;2024-01-30T10:06:40;9.00;99.90
37240;DHT22;23130;48.760;9.178;2024-01-30T10:09:07;9.10;99.90
37240;DHT22;23130;48.760;9.178;2024-01-30T10:11:35;9.20;99.90
37240;DHT22;23130;48.760;9.178;2024-01-30T10:14:01;9.40;99.90
37240;DHT22;23130;48.760;9.178;2024-01-30T10:16:27;9.40;99.90
37240;DHT22;23130;48.760;9.178;2024-01-30T10:18:52;9.40;99.90
37240;DHT22;23130;48.760;9.178;2024-01-30T10:21:19;9.50;99.90
37240;DHT22;23130;48.760;9.178;2024-01-30T10:23:46;9.50;99.90
37240;DHT22;23130;48.760;9.178;2024-01-30T10:26:11;9.60;99.90
37240;DHT22;23130;48.760;9.178;2024-01-30T10:28:37;9.50;99.90
37240;DHT22;23130;48.760;9.178;2024-01-30T10:31:03;9.70;99.90
37240;DHT22;23130;48.760;9.178;2024-01-30T10:33:29;9.90;99.90
37240;DHT22;23130;48.760;9.178;2024-01-30T10:36:02;10.00;99.90
37240;DHT22;23130;48.760;9.178;2024-01-30T10:38:31;10.00;99.90
37240;DHT22;23130;48.760;9.178;2024-01-30T10:40:57;10.20;99.90
37240;DHT22;23130;48.760;9.178;2024-01-30T10:43:24;10.20;99.90
37240;DHT22;23130;48.760;9.178;2024-01-30T10:45:49;10.30;99.90
37240;DHT22;23130;48.760;9.178;2024-01-30T10:48:17;10.40;99.90
37240;DHT22;23130;48.760;9.178;2024-01-30T10:50:44;10.50;99.90
37240;DHT22;23130;48.760;9.178;2024-01-30T10:53:10;10.60;99.90
37240;DHT22;23130;48.760;9.178;2024-01-30T10:55:36;10.80;99.90
37240;DHT22;23130;48.760;9.178;2024-01-30T10:58:02;10.90;99.90
37240;DHT22;23130;48.760;9.178;2024-01-30T11:00:28;11.00;99.90
37240;DHT22;23130;48.760;9.178;2024-01-30T11:02:53;11.10;99.90
37240;DHT22;23130;48.760;9.178;2024-01-30T11:05:25;11.10;99.90
37240;DHT22;23130;48.760;9.178;2024-01-30T11:07:53;11.30;99.90
37240;DHT22;23130;48.760;9.178;2024-01-30T11:10:19;11.40;99.90
37240;DHT22;23130;48.760;9.178;2024-01-30T11:12:45;11.50;99.90
37240;DHT22;23130;48.760;9.178;2024-01-30T11:15:12;11.50;99.90
37240;DHT22;23130;48.760;9.178;2024-01-30T11:20:22;11.60;99.90
37240;DHT22;23130;48.760;9.178;2024-01-30T11:22:52;11.70;99.90
37240;DHT22;23130;48.760;9.178;2024-01-30T11:25:19;11.90;99.90
37240;DHT22;23130;48.760;9.178;2024-01-30T11:27:45;12.10;99.90
37240;DHT22;23130;48.760;9.178;2024-01-30T11:30:33;12.00;99.90
37240;DHT22;23130;48.760;9.178;2024-01-30T11:35:24;11.90;99.90
37240;DHT22;23130;48.760;9.178;2024-01-30T11:37:49;12.10;99.90
37240;DHT22;23130;48.760;9.178;2024-01-30T11:40:15;12.10;99.90
37240;DHT22;23130;48.760;9.178;2024-01-30T11:42:41;12.20;99.90
37240;DHT22;23130;48.760;9.178;2024-01-30T11:45:07;12.40;99.90
37240;DHT22;23130;48.760;9.178;2024-01-30T11:47:34;12.50;99.90
37240;DHT22;23130;48.760;9.178;2024-01-30T11:50:00;12.60;99.90
37240;DHT22;23130;48.760;9.178;2024-01-30T11:52:25;12.80;99.90
37240;DHT22;23130;48.760;9.178;2024-01-30T11:54:51;12.80;99.90
37240;DHT22;23130;48.760;9.178;2024-01-30T11:57:17;13.00;99.90
37240;DHT22;23130;48.760;9.178;2024-01-30T11:59:42;13.10;99.90
37240;DHT22;23130;48.760;9.178;2024-01-30T12:02:08;12.90;99.90
37240;DHT22;23130;48.760;9.178;2024-01-30T12:04:33;12.80;99.90
37240;DHT22;23130;48.760;9.178;2024-01-30T12:06:58;12.80;99.90
37240;DHT22;23130;48.760;9.178;2024-01-30T12:09:24;12.80;99.90
37240;DHT22;23130;48.760;9.178;2024-01-30T12:11:49;12.80;99.90
37240;DHT22;23130;48.760;9.178;2024-01-30T12:14:16;12.90;99.90
37240;DHT22;23130;48.760;9.178;2024-01-30T12:16:41;12.90;99.90
37240;DHT22;23130;48.760;9.178;2024-01-30T12:19:07;12.90;99.90
37240;DHT22;23130;48.760;9.178;2024-01-30T12:21:34;12.80;99.90
37240;DHT22;23130;48.760;9.178;2024-01-30T12:23:59;12.90;99.90
37240;DHT22;23130;48.760;9.178;2024-01-30T12:26:25;12.80;99.90
37240;DHT22;23130;48.760;9.178;2024-01-30T12:28:53;12.70;99.90
37240;DHT22;23130;48.760;9.178;2024-01-30T12:31:25;12.90;99.90
37240;DHT22;23130;48.760;9.178;2024-01-30T12:33:50;12.90;99.90
37240;DHT22;23130;48.760;9.178;2024-01-30T12:36:16;12.90;99.90
37240;DHT22;23130;48.760;9.178;2024-01-30T12:38:42;13.00;99.90
37240;DHT22;23130;48.760;9.178;2024-01-30T12:41:07;13.10;99.90
37240;DHT22;23130;48.760;9.178;2024-01-30T12:43:34;13.30;99.90
37240;DHT22;23130;48.760;9.178;2024-01-30T12:45:59;13.40;99.90
37240;DHT22;23130;48.760;9.178;2024-01-30T12:48:27;13.40;99.90
37240;DHT22;23130;48.760;9.178;2024-01-30T12:50:55;13.40;99.90
37240;DHT22;23130;48.760;9.178;2024-01-30T12:53:21;13.30;99.90
37240;DHT22;23130;48.760;9.178;2024-01-30T12:55:47;13.30;99.90
37240;DHT22;23130;48.760;9.178;2024-01-30T12:58:13;13.20;99.90
37240;DHT22;23130;48.760;9.178;2024-01-30T13:00:39;13.30;99.90
37240;DHT22;23130;48.760;9.178;2024-01-30T13:03:05;13.20;99.90
37240;DHT22;23130;48.760;9.178;2024-01-30T13:05:30;13.20;99.90
37240;DHT22;23130;48.760;9.178;2024-01-30T13:07:56;13.00;99.90
37240;DHT22;23130;48.760;9.178;2024-01-30T13:10:23;12.80;99.90
37240;DHT22;23130;48.760;9.178;2024-01-30T13:12:48;12.80;99.90
37240;DHT22;23130;48.760;9.178;2024-01-30T13:15:14;12.90;99.90
37240;DHT22;23130;48.760;9.178;2024-01-30T13:17:40;12.90;99.90
37240;DHT22;23130;48.760;9.178;2024-01-30T13:20:08;13.00;99.90
37240;DHT22;23130;48.760;9.178;2024-01-30T13:22:33;13.10;99.90
37240;DHT22;23130;48.760;9.178;2024-01-30T13:24:59;13.10;99.90
37240;DHT22;23130;48.760;9.178;2024-01-30T13:27:24;13.10;99.90
37240;DHT22;23130;48.760;9.178;2024-01-30T13:29:50;13.00;99.90
37240;DHT22;23130;48.760;9.178;2024-01-30T13:32:16;13.00;99.90
37240;DHT22;23130;48.760;9.178;2024-01-30T13:34:42;13.10;99.90
37240;DHT22;23130;48.760;9.178;2024-01-30T13:37:09;12.80;99.90
37240;DHT22;23130;48.760;9.178;2024-01-30T13:39:38;12.70;99.90
37240;DHT22;23130;48.760;9.178;2024-01-30T13:42:05;12.60;99.90
37240;DHT22;23130;48.760;9.178;2024-01-30T13:44:30;12.50;99.90
37240;DHT22;23130;48.760;9.178;2024-01-30T13:46:56;12.40;99.90
37240;DHT22;23130;48.760;9.178;2024-01-30T13:49:23;12.40;99.90
37240;DHT22;23130;48.760;9.178;2024-01-30T13:51:49;12.30;99.90
37240;DHT22;23130;48.760;9.178;2024-01-30T13:54:14;12.30;99.90
37240;DHT22;23130;48.760;9.178;2024-01-30T13:56:41;12.40;99.90
37240;DHT22;23130;48.760;9.178;2024-01-30T13:59:08;12.40;99.90
37240;DHT22;23130;48.760;9.178;2024-01-30T14:01:34;12.40;99.90
37240;DHT22;23130;48.760;9.178;2024-01-30T14:03:59;12.40;99.90
37240;DHT22;23130;48.760;9.178;2024-01-30T14:06:25;12.40;99.90
37240;DHT22;23130;48.760;9.178;2024-01-30T14:08:50;12.30;99.90
37240;DHT22;23130;48.760;9.178;2024-01-30T14:11:15;12.30;99.90
37240;DHT22;23130;48.760;9.178;2024-01-30T14:13:41;12.30;99.90
37240;DHT22;23130;48.760;9.178;2024-01-30T14:16:06;12.20;99.90
37240;DHT22;23130;48.760;9.178;2024-01-30T14:18:32;12.20;99.90
37240;DHT22;23130;48.760;9.178;2024-01-30T14:20:58;12.10;99.90
37240;DHT22;23130;48.760;9.178;2024-01-30T14:23:25;12.00;99.90
37240;DHT22;23130;48.760;9.178;2024-01-30T14:25:51;12.00;99.90
37240;DHT22;23130;48.760;9.178;2024-01-30T14:28:17;12.00;99.90
37240;DHT22;23130;48.760;9.178;2024-01-30T14:30:42;11.90;99.90
37240;DHT22;23130;48.760;9.178;2024-01-30T14:33:08;11.90;99.90
37240;DHT22;23130;48.760;9.178;2024-01-30T14:35:35;11.80;99.90
37240;DHT22;23130;48.760;9.178;2024-01-30T14:38:02;11.80;99.90
37240;DHT22;23130;48.760;9.178;2024-01-30T14:40:29;11.80;99.90
37240;DHT22;23130;48.760;9.178;2024-01-30T14:42:56;11.70;99.90
37240;DHT22;23130;48.760;9.178;2024-01-30T14:45:21;11.60;99.90
37240;DHT22;23130;48.760;9.178;2024-01-30T14:47:47;11.60;99.90
37240;DHT22;23130;48.760;9.178;2024-01-30T14:50:14;11.50;99.90
37240;DHT22;23130;48.760;9.178;2024-01-30T14:52:41;11.40;99.90
37240;DHT22;23130;48.760;9.178;2024-01-30T14:55:07;11.40;99.90
37240;DHT22;23130;48.760;9.178;2024-01-30T14:57:33;11.30;99.90
37240;DHT22;23130;48.760;9.178;2024-01-30T15:00:00;11.20;99.90
37240;DHT22;23130;48.760;9.178;2024-01-30T15:02:25;11.10;99.90
37240;DHT22;23130;48.760;9.178;2024-01-30T15:04:51;11.10;99.90
37240;DHT22;23130;48.760;9.178;2024-01-30T15:07:16;11.00;99.90
37240;DHT22;23130;48.760;9.178;2024-01-30T15:09:44;10.90;99.90
37240;DHT22;23130;48.760;9.178;2024-01-30T15:12:09;10.80;99.90
37240;DHT22;23130;48.760;9.178;2024-01-30T15:14:34;10.70;99.90
37240;DHT22;23130;48.760;9.178;2024-01-30T15:17:00;10.50;99.90
37240;DHT22;23130;48.760;9.178;2024-01-30T15:19:26;10.40;99.90
37240;DHT22;23130;48.760;9.178;2024-01-30T15:21:52;10.40;99.90
37240;DHT22;23130;48.760;9.178;2024-01-30T15:24:17;10.30;99.90
37240;DHT22;23130;48.760;9.178;2024-01-30T15:26:49;10.20;99.90
37240;DHT22;23130;48.760;9.178;2024-01-30T15:29:15;10.10;99.90
37240;DHT22;23130;48.760;9.178;2024-01-30T15:31:40;10.00;99.90
37240;DHT22;23130;48.760;9.178;2024-01-30T15:34:06;9.90;99.90
37240;DHT22;23130;48.760;9.178;2024-01-30T15:36:31;9.80;99.90
37240;DHT22;23130;48.760;9.178;2024-01-30T15:38:57;9.80;99.90
37240;DHT22;23130;48.760;9.178;2024-01-30T15:41:23;9.70;99.90
37240;DHT22;23130;48.760;9.178;2024-01-30T15:43:48;9.70;99.90
37240;DHT22;23130;48.760;9.178;2024-01-30T15:46:15;9.60;99.90